Time;durP1;ratioP1;P1;durP2;ratioP2;P2;SDS_P1;SDS_P2;PMS_P1;PMS_P2;Temp;Humidity;BMP_temperature;BMP_pressure;BME280_temperature;BME280_humidity;BME280_pressure;Samples;Min_cycle;Max_cycle;Signal;HPM_P1;HPM_P2
2022/08/08 00:01:57;;;;;;;1.50;1.30;;;15.00;6.70;;;;;;5125457;27;34365;-76
2022/08/08 00:04:33;;;;;;;3.58;1.50;;;14.90;7.40;;;;;;5109279;27;34204;-78
2022/08/08 00:07:18;;;;;;;1.38;1.27;;;14.90;6.70;;;;;;5107569;27;34161;-76
2022/08/08 00:10:04;;;;;;;1.20;1.10;;;14.90;7.70;;;;;;5091046;27;34069;-77
2022/08/08 00:12:46;;;;;;;2.45;1.35;;;14.80;8.80;;;;;;5107880;27;35836;-76
2022/08/08 00:15:21;;;;;;;2.03;1.40;;;14.80;5.90;;;;;;5080338;27;34060;-76
2022/08/08 00:17:54;;;;;;;1.98;1.30;;;14.70;6.60;;;;;;5088969;28;34114;-77
2022/08/08 00:20:32;;;;;;;3.80;1.70;;;14.70;6.10;;;;;;5106219;28;34040;-76
2022/08/08 00:23:05;;;;;;;1.75;1.60;;;14.60;6.50;;;;;;5091389;27;36263;-77
2022/08/08 00:25:38;;;;;;;2.00;1.20;;;14.60;6.20;;;;;;5107368;27;34248;-76
2022/08/08 00:28:08;;;;;;;1.33;1.20;;;14.60;7.80;;;;;;5090749;27;34124;-77
2022/08/08 00:30:37;;;;;;;1.30;1.20;;;14.50;5.70;;;;;;5108293;27;34155;-76
2022/08/08 00:33:10;;;;;;;2.95;1.58;;;14.50;5.80;;;;;;5090682;27;35909;-76
2022/08/08 00:35:59;;;;;;;1.45;1.30;;;14.40;6.90;;;;;;5089841;27;34230;-76
2022/08/08 00:38:35;;;;;;;1.45;1.35;;;14.40;8.10;;;;;;5087589;28;34633;-76
2022/08/08 00:41:37;;;;;;;1.60;1.35;;;14.30;7.20;;;;;;5105012;27;34134;-77
2022/08/08 00:44:23;;;;;;;1.70;0.95;;;14.30;9.80;;;;;;5114152;27;34364;-77
2022/08/08 00:47:11;;;;;;;1.02;1.02;;;14.30;9.00;;;;;;5107983;27;34266;-76
2022/08/08 00:50:07;;;;;;;3.40;1.33;;;14.20;8.30;;;;;;5109992;27;34204;-76
2022/08/08 00:52:57;;;;;;;1.50;1.40;;;14.20;9.60;;;;;;5125961;27;34255;-76
2022/08/08 00:55:54;;;;;;;1.10;1.10;;;14.10;9.20;;;;;;5092189;27;35846;-77
2022/08/08 00:58:50;;;;;;;1.25;1.15;;;14.10;10.70;;;;;;5125257;27;34558;-76
2022/08/08 01:01:27;;;;;;;1.25;1.15;;;14.00;10.00;;;;;;5125034;27;34156;-76
2022/08/08 01:04:24;;;;;;;2.33;1.42;;;14.00;8.30;;;;;;5091455;27;34139;-76
2022/08/08 01:07:29;;;;;;;1.50;1.40;;;13.90;10.80;;;;;;5129172;27;36659;-76
2022/08/08 01:10:30;;;;;;;1.40;1.30;;;13.90;11.60;;;;;;5110148;27;34163;-76
2022/08/08 01:13:25;;;;;;;1.73;1.60;;;13.90;11.80;;;;;;5111259;27;34254;-77
2022/08/08 01:16:26;;;;;;;1.60;1.50;;;13.80;10.60;;;;;;5089173;28;34337;-76
2022/08/08 01:19:29;;;;;;;4.05;1.17;;;13.80;11.10;;;;;;5087684;27;36360;-77
2022/08/08 01:22:20;;;;;;;1.50;1.35;;;13.80;10.80;;;;;;5102795;27;34094;-77
2022/08/08 01:25:17;;;;;;;0.98;0.98;;;13.70;10.90;;;;;;5095464;27;34378;-76
2022/08/08 01:28:02;;;;;;;4.50;1.60;;;13.60;11.30;;;;;;5118690;27;34065;-76
2022/08/08 01:31:03;;;;;;;2.55;1.30;;;13.60;10.70;;;;;;5106153;27;35782;-76
2022/08/08 01:34:04;;;;;;;1.40;1.33;;;13.60;11.10;;;;;;5088981;28;34124;-76
2022/08/08 01:36:55;;;;;;;1.48;1.38;;;13.60;11.10;;;;;;5073205;27;35902;-76
2022/08/08 01:39:48;;;;;;;2.75;1.70;;;13.50;9.30;;;;;;5087962;27;34125;-76
2022/08/08 01:42:30;;;;;;;2.13;1.20;;;13.50;11.60;;;;;;5088644;27;36316;-77
2022/08/08 01:45:25;;;;;;;5.80;1.60;;;13.50;10.80;;;;;;5106115;27;34186;-76
2022/08/08 01:48:18;;;;;;;1.42;1.33;;;13.40;10.40;;;;;;5105030;27;34255;-76
2022/08/08 01:51:07;;;;;;;1.50;1.40;;;13.40;11.60;;;;;;5078661;27;34073;-75
2022/08/08 01:53:55;;;;;;;2.22;1.38;;;13.40;10.20;;;;;;5105726;27;36129;-76
2022/08/08 01:56:46;;;;;;;3.05;1.40;;;13.30;9.70;;;;;;5123699;27;34413;-76
2022/08/08 01:59:43;;;;;;;1.40;1.30;;;13.30;9.70;;;;;;5105672;27;34234;-76
2022/08/08 02:02:27;;;;;;;2.13;1.23;;;13.20;11.90;;;;;;5102153;27;34460;-76
2022/08/08 02:05:23;;;;;;;1.83;1.48;;;13.20;9.80;;;;;;5086378;27;35714;-76
2022/08/08 02:08:07;;;;;;;1.90;1.40;;;13.10;12.70;;;;;;5104058;27;34092;-76
2022/08/08 02:11:02;;;;;;;1.42;1.33;;;13.10;12.10;;;;;;5086803;27;34421;-76
2022/08/08 02:13:41;;;;;;;2.78;1.65;;;13.00;12.00;;;;;;5135486;27;35433;-76
2022/08/08 02:16:17;;;;;;;1.42;1.33;;;13.00;9.60;;;;;;5088762;27;35716;-76
2022/08/08 02:19:01;;;;;;;1.70;1.60;;;13.00;10.60;;;;;;5105650;27;34008;-76
2022/08/08 02:24:30;;;;;;;2.28;1.60;;;12.90;9.90;;;;;;5103434;27;34250;-76
2022/08/08 02:27:05;;;;;;;1.55;1.40;;;12.90;10.50;;;;;;5104854;27;35936;-76
2022/08/08 02:29:56;;;;;;;1.77;1.40;;;12.90;10.60;;;;;;5085242;28;34115;-76
2022/08/08 02:32:47;;;;;;;2.10;1.20;;;12.90;12.00;;;;;;5090571;28;34518;-75
2022/08/08 02:35:36;;;;;;;1.52;1.20;;;12.80;12.20;;;;;;5087160;27;34025;-76
2022/08/08 02:38:32;;;;;;;1.40;1.30;;;12.80;12.80;;;;;;5127139;27;34993;-77
2022/08/08 02:41:29;;;;;;;1.73;1.63;;;12.70;13.90;;;;;;5079289;27;34264;-76
2022/08/08 02:44:30;;;;;;;1.60;1.50;;;12.70;13.30;;;;;;5109043;27;34193;-76
2022/08/08 02:47:31;;;;;;;1.90;1.60;;;12.60;14.00;;;;;;5114434;27;34344;-77
2022/08/08 02:50:22;;;;;;;2.05;1.77;;;12.60;13.20;;;;;;5107946;27;36394;-76
2022/08/08 02:53:16;;;;;;;2.80;1.90;;;12.50;12.90;;;;;;5122435;27;34240;-76
2022/08/08 02:56:08;;;;;;;1.30;1.20;;;12.50;12.20;;;;;;5124518;27;34281;-76
2022/08/08 02:59:09;;;;;;;2.22;2.00;;;12.40;13.30;;;;;;5143267;27;34059;-76
2022/08/08 03:02:08;;;;;;;1.52;1.40;;;12.40;13.50;;;;;;5093755;27;35796;-76
2022/08/08 03:05:09;;;;;;;1.65;1.40;;;12.40;13.60;;;;;;5092168;27;34212;-76
2022/08/08 03:08:05;;;;;;;3.05;1.70;;;12.30;13.60;;;;;;5090085;27;34332;-76
2022/08/08 03:11:01;;;;;;;1.67;1.58;;;12.30;13.60;;;;;;5105821;28;34093;-76
2022/08/08 03:13:46;;;;;;;1.30;1.30;;;12.20;12.50;;;;;;5106662;27;35713;-77
2022/08/08 03:16:23;;;;;;;1.42;1.33;;;12.20;13.30;;;;;;5105650;28;34095;-76
2022/08/08 03:19:15;;;;;;;1.55;1.45;;;12.20;12.30;;;;;;5088575;28;34326;-76
2022/08/08 03:21:40;;;;;;;5.13;1.63;;;12.20;13.30;;;;;;5093091;27;34517;-76
2022/08/08 03:24:07;;;;;;;1.85;1.50;;;12.10;10.70;;;;;;5107689;27;35749;-76
2022/08/08 03:26:41;;;;;;;1.80;1.70;;;12.10;10.90;;;;;;5126613;27;33977;-77
2022/08/08 03:29:11;;;;;;;1.63;1.52;;;12.00;11.50;;;;;;5091885;27;34251;-77
2022/08/08 03:34:18;;;;;;;1.65;1.55;;;12.00;10.90;;;;;;5125859;27;34661;-76
2022/08/08 03:36:44;;;;;;;1.55;1.45;;;11.90;11.00;;;;;;5107600;27;34410;-76
2022/08/08 03:39:11;;;;;;;1.35;1.25;;;11.90;11.20;;;;;;5126010;27;34188;-76
2022/08/08 03:41:37;;;;;;;1.42;1.33;;;11.90;11.30;;;;;;5090709;27;34436;-77
2022/08/08 03:44:03;;;;;;;1.60;1.50;;;11.80;11.20;;;;;;5107196;27;34663;-76
2022/08/08 03:46:29;;;;;;;1.85;1.75;;;11.80;11.40;;;;;;5086437;28;34111;-76
2022/08/08 03:48:57;;;;;;;1.67;1.35;;;11.80;11.30;;;;;;5121146;27;34146;-77
2022/08/08 03:51:24;;;;;;;1.75;1.50;;;11.80;11.40;;;;;;5085156;27;34149;-76
2022/08/08 03:53:52;;;;;;;1.35;1.25;;;11.80;11.50;;;;;;5127934;27;35783;-77
2022/08/08 03:56:19;;;;;;;1.48;1.35;;;11.70;11.80;;;;;;5111368;27;34373;-76
2022/08/08 03:58:51;;;;;;;1.70;1.60;;;11.70;11.50;;;;;;5111134;27;34361;-76
2022/08/08 04:01:17;;;;;;;1.70;1.60;;;11.70;12.00;;;;;;5127484;27;34104;-77
2022/08/08 04:03:47;;;;;;;1.63;1.52;;;11.60;11.70;;;;;;5128024;27;35896;-77
2022/08/08 04:06:14;;;;;;;1.65;1.55;;;11.60;11.80;;;;;;5128241;27;34082;-77
2022/08/08 04:08:41;;;;;;;1.60;1.50;;;11.60;11.80;;;;;;5107832;27;34175;-76
2022/08/08 04:11:08;;;;;;;2.00;1.40;;;11.60;12.20;;;;;;5107284;27;34088;-77
2022/08/08 04:13:34;;;;;;;1.50;1.40;;;11.50;12.00;;;;;;5106940;27;35562;-77
2022/08/08 04:16:00;;;;;;;1.52;1.42;;;11.50;11.80;;;;;;5107090;27;34296;-76
2022/08/08 04:18:26;;;;;;;1.67;1.58;;;11.50;11.90;;;;;;5125166;27;34576;-76
2022/08/08 04:20:52;;;;;;;1.50;1.40;;;11.50;11.90;;;;;;5107020;27;34316;-77
2022/08/08 04:23:18;;;;;;;1.65;1.55;;;11.50;12.00;;;;;;5106981;27;35524;-76
2022/08/08 04:25:44;;;;;;;1.67;1.40;;;11.40;12.00;;;;;;5107104;27;34253;-77
2022/08/08 04:28:10;;;;;;;1.92;1.40;;;11.40;12.00;;;;;;5106521;27;34325;-77
2022/08/08 04:30:36;;;;;;;1.40;1.30;;;11.40;12.10;;;;;;5106626;27;34570;-77
2022/08/08 04:33:02;;;;;;;1.77;1.30;;;11.40;12.30;;;;;;5096169;27;36080;-77
2022/08/08 04:35:28;;;;;;;1.48;1.38;;;11.40;12.20;;;;;;5087899;28;34273;-77
2022/08/08 04:37:54;;;;;;;3.60;1.50;;;11.40;12.10;;;;;;5086747;28;34117;-77
2022/08/08 04:40:21;;;;;;;1.20;1.10;;;11.40;12.30;;;;;;5106612;27;34325;-76
2022/08/08 04:42:47;;;;;;;1.60;1.50;;;11.40;12.30;;;;;;5089391;27;36367;-77
2022/08/08 04:45:14;;;;;;;1.95;1.70;;;11.40;12.30;;;;;;5086359;28;34500;-77
2022/08/08 04:47:40;;;;;;;3.15;1.52;;;11.40;12.50;;;;;;5109745;27;34245;-77
2022/08/08 04:50:06;;;;;;;1.98;1.42;;;11.40;12.40;;;;;;5089723;27;34152;-77
2022/08/08 04:52:33;;;;;;;1.60;1.50;;;11.40;12.60;;;;;;5086178;28;36424;-77
2022/08/08 04:54:59;;;;;;;1.60;1.50;;;11.40;12.60;;;;;;5093404;27;34314;-77
2022/08/08 04:57:25;;;;;;;1.60;1.50;;;11.40;12.70;;;;;;5124903;27;34164;-77
2022/08/08 04:59:51;;;;;;;1.88;1.65;;;11.40;12.60;;;;;;5106771;27;34286;-77
2022/08/08 05:02:17;;;;;;;3.13;1.50;;;11.50;12.80;;;;;;5105880;27;35865;-77
2022/08/08 05:04:43;;;;;;;1.70;1.60;;;11.50;12.80;;;;;;5107340;27;34006;-77
2022/08/08 05:07:09;;;;;;;1.60;1.50;;;11.50;12.70;;;;;;5107073;27;34115;-77
2022/08/08 05:09:35;;;;;;;1.58;1.48;;;11.50;12.70;;;;;;5106554;27;34455;-77
2022/08/08 05:12:02;;;;;;;1.55;1.45;;;11.50;12.70;;;;;;5140404;27;35733;-76
2022/08/08 05:14:29;;;;;;;2.40;1.60;;;11.50;12.90;;;;;;5089352;27;34258;-77
2022/08/08 05:16:55;;;;;;;1.70;1.60;;;11.50;12.90;;;;;;5106625;27;34189;-77
2022/08/08 05:19:22;;;;;;;1.80;1.70;;;11.60;12.90;;;;;;5089301;27;34151;-77
2022/08/08 05:21:48;;;;;;;2.13;1.65;;;11.60;12.90;;;;;;5083997;28;35885;-77
2022/08/08 05:24:15;;;;;;;2.00;1.90;;;11.90;12.80;;;;;;5086831;28;34139;-77
2022/08/08 05:26:45;;;;;;;2.90;1.45;;;12.50;12.30;;;;;;5123143;27;34414;-77
2022/08/08 05:29:11;;;;;;;3.20;1.85;;;13.20;11.50;;;;;;5105652;27;35406;-77
2022/08/08 05:31:38;;;;;;;1.58;1.48;;;13.60;10.50;;;;;;5097881;28;34444;-77
2022/08/08 05:34:09;;;;;;;2.33;1.50;;;13.70;10.00;;;;;;5120062;27;34134;-77
2022/08/08 05:36:37;;;;;;;2.22;1.77;;;13.80;10.10;;;;;;5117280;27;34877;-77
2022/08/08 05:39:05;;;;;;;1.90;1.55;;;13.70;10.50;;;;;;5127014;27;34059;-77
2022/08/08 05:41:34;;;;;;;2.33;1.58;;;13.60;10.60;;;;;;5126268;27;35626;-77
2022/08/08 05:44:19;;;;;;;1.55;1.45;;;13.60;11.10;;;;;;5126799;27;34407;-77
2022/08/08 05:46:45;;;;;;;2.00;1.48;;;13.50;13.80;;;;;;5126832;27;34352;-77
2022/08/08 05:49:13;;;;;;;1.70;1.60;;;13.60;11.10;;;;;;5126479;27;34352;-77
2022/08/08 05:51:40;;;;;;;2.15;1.90;;;13.60;11.30;;;;;;5118084;27;34463;-77
2022/08/08 05:54:06;;;;;;;1.95;1.85;;;13.60;11.30;;;;;;5086571;28;34088;-78
2022/08/08 05:56:38;;;;;;;2.22;2.03;;;13.70;11.70;;;;;;5137669;27;34306;-78
2022/08/08 05:59:09;;;;;;;1.83;1.73;;;13.70;12.50;;;;;;5146680;27;34034;-77
2022/08/08 06:01:41;;;;;;;2.13;1.90;;;13.80;11.70;;;;;;5108122;27;35688;-77
2022/08/08 06:04:10;;;;;;;1.90;1.80;;;14.10;12.20;;;;;;5133909;27;34176;-77
2022/08/08 06:06:41;;;;;;;2.20;2.00;;;14.70;11.60;;;;;;5081934;27;34185;-78
2022/08/08 06:09:09;;;;;;;1.73;1.63;;;15.50;10.60;;;;;;5089301;28;34168;-77
2022/08/08 06:11:35;;;;;;;2.13;1.85;;;16.30;8.70;;;;;;5105860;28;36014;-77
2022/08/08 06:14:04;;;;;;;2.78;1.85;;;17.30;7.10;;;;;;5108585;27;34418;-77
2022/08/08 06:16:37;;;;;;;3.88;2.00;;;18.40;5.80;;;;;;5092488;27;34141;-77
2022/08/08 06:19:03;;;;;;;2.58;1.67;;;19.40;4.70;;;;;;5109398;27;34273;-77
2022/08/08 06:21:30;;;;;;;1.88;1.67;;;20.20;3.50;;;;;;5092950;27;35942;-79
2022/08/08 06:23:56;;;;;;;2.05;1.60;;;21.00;2.60;;;;;;5091229;27;34077;-79
2022/08/08 06:26:26;;;;;;;2.72;1.80;;;21.80;2.00;;;;;;5123959;27;34253;-78
2022/08/08 06:29:02;;;;;;;2.95;1.50;;;22.60;1.20;;;;;;5114119;27;34483;-78
2022/08/08 06:31:33;;;;;;;1.65;1.55;;;23.20;1.00;;;;;;5130737;27;36438;-79
2022/08/08 06:34:18;;;;;;;1.70;1.48;;;23.80;1.00;;;;;;5112520;27;34443;-78
2022/08/08 06:36:44;;;;;;;1.65;1.23;;;24.50;1.00;;;;;;5093575;27;34353;-78
2022/08/08 06:39:13;;;;;;;1.60;1.45;;;24.90;1.00;;;;;;5137012;27;34317;-78
2022/08/08 06:41:56;;;;;;;1.58;1.20;;;25.20;1.00;;;;;;5100492;27;35819;-78
2022/08/08 06:44:24;;;;;;;2.78;1.27;;;25.90;1.00;;;;;;5091477;27;34177;-77
2022/08/08 06:46:51;;;;;;;1.40;1.25;;;26.30;1.00;;;;;;5109045;27;34266;-77
2022/08/08 06:49:18;;;;;;;4.07;1.45;;;26.60;1.00;;;;;;5109119;27;34148;-77
2022/08/08 06:51:44;;;;;;;1.30;1.20;;;27.00;1.00;;;;;;5124595;27;35090;-78
2022/08/08 06:54:11;;;;;;;1.55;1.05;;;27.10;1.00;;;;;;5122735;27;34319;-78
2022/08/08 06:56:38;;;;;;;1.13;1.02;;;27.20;1.00;;;;;;5113023;27;34268;-79
2022/08/08 06:59:07;;;;;;;2.47;1.20;;;27.40;1.00;;;;;;5110129;27;34604;-79
2022/08/08 07:01:42;;;;;;;1.40;1.10;;;27.50;1.00;;;;;;5110102;27;36553;-78
2022/08/08 07:04:24;;;;;;;6.93;1.40;;;27.70;1.00;;;;;;5073312;28;34165;-77
2022/08/08 07:07:01;;;;;;;1.83;1.00;;;27.90;1.00;;;;;;5119405;27;34110;-78
2022/08/08 07:09:47;;;;;;;1.50;1.25;;;28.00;1.00;;;;;;5126917;27;34141;-78
2022/08/08 07:12:22;;;;;;;1.10;1.00;;;28.40;1.00;;;;;;5097426;27;35776;-78
2022/08/08 07:15:05;;;;;;;1.10;1.00;;;28.50;1.00;;;;;;5106806;27;34447;-78
2022/08/08 07:17:37;;;;;;;1.15;0.82;;;28.60;1.00;;;;;;5126427;27;34072;-77
2022/08/08 07:20:06;;;;;;;1.15;1.05;;;28.80;1.00;;;;;;5108607;27;34043;-78
2022/08/08 07:22:58;;;;;;;0.90;0.90;;;28.80;1.00;;;;;;5108872;27;36052;-78
2022/08/08 07:25:25;;;;;;;3.38;1.13;;;29.10;1.00;;;;;;5097719;27;34158;-78
2022/08/08 07:28:10;;;;;;;1.00;0.90;;;29.20;1.00;;;;;;5123183;27;34289;-78
2022/08/08 07:30:37;;;;;;;0.90;0.90;;;29.30;1.00;;;;;;5112826;27;34175;-78
2022/08/08 07:33:04;;;;;;;1.50;0.90;;;29.10;1.00;;;;;;5122536;27;34780;-79
2022/08/08 07:35:32;;;;;;;1.52;0.90;;;29.10;1.00;;;;;;5111300;27;34357;-78
2022/08/08 07:37:59;;;;;;;0.77;0.77;;;29.10;1.00;;;;;;5106103;27;34180;-78
2022/08/08 07:40:26;;;;;;;1.92;0.82;;;28.90;1.00;;;;;;5121005;27;34011;-78
2022/08/08 07:42:54;;;;;;;1.77;1.02;;;28.80;1.00;;;;;;5110268;27;35664;-78
2022/08/08 07:45:20;;;;;;;0.93;0.90;;;28.70;1.00;;;;;;5113468;27;34285;-78
2022/08/08 07:47:46;;;;;;;1.00;0.90;;;28.60;1.00;;;;;;5112706;27;34353;-78
2022/08/08 07:50:13;;;;;;;3.13;1.20;;;28.50;1.00;;;;;;5100466;27;34203;-77
2022/08/08 07:52:43;;;;;;;0.85;0.85;;;28.40;1.00;;;;;;5110633;27;35831;-78
2022/08/08 07:55:18;;;;;;;1.50;0.80;;;28.50;1.00;;;;;;5123855;27;34377;-77
2022/08/08 07:58:04;;;;;;;1.10;0.60;;;28.70;1.00;;;;;;5120697;27;34271;-77
2022/08/08 08:00:48;;;;;;;1.15;0.93;;;28.60;1.00;;;;;;5105211;28;34344;-77
2022/08/08 08:03:35;;;;;;;1.10;0.93;;;28.60;1.00;;;;;;5092179;27;36888;-78
2022/08/08 08:06:04;;;;;;;1.10;0.80;;;28.60;1.00;;;;;;5125497;27;34366;-77
2022/08/08 08:08:48;;;;;;;2.35;0.80;;;28.50;1.00;;;;;;5107922;27;34196;-77
2022/08/08 08:11:18;;;;;;;0.80;0.80;;;28.60;1.00;;;;;;5108833;27;34245;-77
2022/08/08 08:13:56;;;;;;;0.70;0.70;;;28.70;1.00;;;;;;5127586;27;34472;-80
2022/08/08 08:16:25;;;;;;;0.60;0.60;;;28.80;1.00;;;;;;5112393;27;34157;-77
2022/08/08 08:18:54;;;;;;;0.95;0.70;;;28.80;1.00;;;;;;5089701;28;34093;-77
2022/08/08 08:21:22;;;;;;;0.70;0.70;;;29.10;1.00;;;;;;5139777;27;34088;-77
2022/08/08 08:23:48;;;;;;;0.52;0.52;;;29.20;1.00;;;;;;5108516;27;34425;-77
2022/08/08 08:26:15;;;;;;;0.70;0.70;;;29.40;1.00;;;;;;5099819;27;34191;-77
2022/08/08 08:28:41;;;;;;;0.95;0.80;;;29.60;1.00;;;;;;5110982;27;34262;-79
2022/08/08 08:31:07;;;;;;;1.20;0.60;;;29.70;1.00;;;;;;5105527;27;34445;-78
2022/08/08 08:33:34;;;;;;;2.92;0.80;;;29.90;1.00;;;;;;5109214;27;35767;-78
2022/08/08 08:36:04;;;;;;;1.70;0.60;;;30.10;1.00;;;;;;5110873;27;34372;-77
2022/08/08 08:38:30;;;;;;;0.60;0.60;;;30.30;1.00;;;;;;5090392;27;34283;-76
2022/08/08 08:40:59;;;;;;;3.20;0.80;;;30.40;1.00;;;;;;5086522;27;34164;-78
2022/08/08 08:43:25;;;;;;;5.00;0.70;;;30.60;1.00;;;;;;5104810;27;37208;-77
2022/08/08 08:45:54;;;;;;;1.25;0.70;;;30.70;1.00;;;;;;5075469;27;34803;-80
2022/08/08 08:48:20;;;;;;;6.75;0.98;;;30.90;1.00;;;;;;5103615;28;34032;-77
2022/08/08 08:50:50;;;;;;;1.23;0.70;;;30.90;1.00;;;;;;5120929;27;34211;-77
2022/08/08 08:53:16;;;;;;;0.73;0.70;;;31.00;1.00;;;;;;5106967;27;36022;-77
2022/08/08 08:55:43;;;;;;;0.93;0.70;;;31.10;1.00;;;;;;5103700;27;34423;-77
2022/08/08 08:58:24;;;;;;;0.88;0.60;;;31.20;1.00;;;;;;5102645;27;35296;-78
2022/08/08 09:00:50;;;;;;;1.58;0.63;;;31.10;1.00;;;;;;5104521;27;35383;-77
2022/08/08 09:03:18;;;;;;;1.67;0.63;;;31.20;1.00;;;;;;5126720;27;34954;-77
2022/08/08 09:05:45;;;;;;;1.45;0.50;;;31.10;1.00;;;;;;5124984;27;34190;-77
2022/08/08 09:08:14;;;;;;;0.50;0.50;;;31.10;1.00;;;;;;5125306;27;34154;-77
2022/08/08 09:10:41;;;;;;;1.95;0.60;;;31.20;1.00;;;;;;5102615;28;34492;-77
2022/08/08 09:13:09;;;;;;;0.60;0.60;;;31.20;1.00;;;;;;5104327;27;35911;-77
2022/08/08 09:15:36;;;;;;;1.02;0.50;;;31.20;1.00;;;;;;5101392;27;34331;-78
2022/08/08 09:18:03;;;;;;;1.77;0.70;;;31.00;1.00;;;;;;5117754;27;34194;-76
2022/08/08 09:20:30;;;;;;;0.82;0.50;;;30.90;1.00;;;;;;5112611;27;34541;-78
2022/08/08 09:22:57;;;;;;;0.50;0.50;;;30.90;1.00;;;;;;5107506;27;35794;-78
2022/08/08 09:25:23;;;;;;;0.95;0.50;;;30.90;1.00;;;;;;5100643;27;34484;-78
2022/08/08 09:27:51;;;;;;;1.60;0.88;;;31.20;1.00;;;;;;5107032;27;34381;-79
2022/08/08 09:30:17;;;;;;;2.65;0.60;;;31.30;1.00;;;;;;5090012;27;34607;-78
2022/08/08 09:32:54;;;;;;;2.33;0.60;;;31.40;1.00;;;;;;5124932;27;34507;-77
2022/08/08 09:35:27;;;;;;;0.40;0.40;;;31.40;1.00;;;;;;5122000;27;34131;-78
2022/08/08 09:38:01;;;;;;;1.40;0.63;;;31.60;1.00;;;;;;5076298;27;34252;-78
2022/08/08 09:40:30;;;;;;;1.00;0.40;;;31.60;1.00;;;;;;5125378;27;34634;-79
2022/08/08 09:43:16;;;;;;;0.57;0.52;;;31.60;1.00;;;;;;5097674;27;35942;-78
2022/08/08 09:45:57;;;;;;;0.52;0.50;;;31.60;1.00;;;;;;5097817;27;34425;-81
2022/08/08 09:48:23;;;;;;;0.93;0.47;;;31.70;1.00;;;;;;5083592;27;34273;-77
2022/08/08 09:50:51;;;;;;;0.68;0.40;;;31.60;1.00;;;;;;5115275;27;34439;-78
2022/08/08 09:53:20;;;;;;;0.50;0.50;;;31.60;1.00;;;;;;5123049;27;36069;-80
2022/08/08 09:55:47;;;;;;;0.60;0.60;;;31.60;1.00;;;;;;5112997;27;34057;-80
2022/08/08 09:58:15;;;;;;;1.52;0.45;;;31.60;1.00;;;;;;5091973;28;34351;-80
2022/08/08 10:00:43;;;;;;;1.95;0.70;;;31.50;1.00;;;;;;5108952;27;34679;-77
2022/08/08 10:03:13;;;;;;;2.58;0.60;;;31.50;1.00;;;;;;5112225;27;36593;-78
2022/08/08 10:05:40;;;;;;;0.50;0.50;;;31.60;1.00;;;;;;5113580;27;34402;-79
2022/08/08 10:08:07;;;;;;;1.02;0.60;;;31.60;1.00;;;;;;5094206;27;34339;-79
2022/08/08 10:10:36;;;;;;;3.28;0.60;;;31.60;1.00;;;;;;5110680;27;34056;-79
2022/08/08 10:13:17;;;;;;;3.05;0.60;;;31.70;1.00;;;;;;5110897;27;35503;-79
2022/08/08 10:15:46;;;;;;;0.68;0.60;;;31.70;1.00;;;;;;5105643;27;34295;-80
2022/08/08 10:18:21;;;;;;;0.60;0.60;;;31.60;1.00;;;;;;5094492;27;33769;-80
2022/08/08 10:20:52;;;;;;;0.60;0.60;;;31.70;1.00;;;;;;5110715;27;34532;-77
2022/08/08 10:23:39;;;;;;;0.52;0.50;;;31.90;1.00;;;;;;5093061;27;35715;-78
2022/08/08 10:26:08;;;;;;;0.52;0.40;;;31.80;1.00;;;;;;5108841;27;34091;-79
2022/08/08 10:28:36;;;;;;;1.23;0.55;;;31.90;1.00;;;;;;5127076;27;34328;-79
2022/08/08 10:33:44;;;;;;;1.02;0.68;;;32.00;1.00;;;;;;5128195;27;34906;-82
2022/08/08 10:36:12;;;;;;;1.85;0.60;;;32.00;1.00;;;;;;5110854;27;34226;-80
2022/08/08 10:38:39;;;;;;;0.50;0.50;;;32.10;1.00;;;;;;5110936;27;34408;-79
2022/08/08 10:41:05;;;;;;;0.40;0.40;;;32.10;1.00;;;;;;5109925;27;34119;-77
2022/08/08 10:43:40;;;;;;;0.68;0.50;;;32.20;1.00;;;;;;5087645;27;35799;-78
2022/08/08 10:46:24;;;;;;;1.52;0.60;;;32.30;1.00;;;;;;5093541;27;34201;-78
2022/08/08 10:48:53;;;;;;;1.42;0.60;;;32.30;1.00;;;;;;5091135;28;34241;-78
2022/08/08 10:51:20;;;;;;;0.50;0.50;;;32.30;1.00;;;;;;5101758;27;34254;-78
2022/08/08 10:53:51;;;;;;;0.50;0.50;;;32.30;1.00;;;;;;5097218;27;34847;-78
2022/08/08 10:56:18;;;;;;;2.42;0.60;;;32.40;1.00;;;;;;5100383;27;34052;-78
2022/08/08 10:58:44;;;;;;;0.70;0.60;;;32.60;1.00;;;;;;5128645;27;34658;-81
2022/08/08 11:01:11;;;;;;;1.88;0.55;;;32.80;1.00;;;;;;5111200;27;34148;-79
2022/08/08 11:03:42;;;;;;;0.70;0.68;;;32.90;1.00;;;;;;5092741;27;36509;-78
2022/08/08 11:06:08;;;;;;;0.68;0.52;;;32.80;1.00;;;;;;5106060;27;34329;-77
2022/08/08 11:08:35;;;;;;;1.17;0.70;;;32.70;1.00;;;;;;5113368;27;34163;-78
2022/08/08 11:11:03;;;;;;;0.63;0.45;;;32.60;1.00;;;;;;5126000;27;34161;-78
2022/08/08 11:13:39;;;;;;;0.45;0.45;;;32.50;1.00;;;;;;5109583;27;35756;-79
2022/08/08 11:16:07;;;;;;;0.50;0.50;;;32.60;1.00;;;;;;5127633;27;34224;-77
2022/08/08 11:18:35;;;;;;;0.50;0.50;;;32.60;1.00;;;;;;5092835;27;33673;-79
2022/08/08 11:21:03;;;;;;;0.60;0.60;;;32.80;1.00;;;;;;5072081;28;34153;-79
2022/08/08 11:23:33;;;;;;;1.08;0.40;;;32.80;1.00;;;;;;5107042;27;35947;-78
2022/08/08 11:26:04;;;;;;;0.60;0.60;;;32.80;1.00;;;;;;5106909;28;34256;-78
2022/08/08 11:28:34;;;;;;;2.58;0.80;;;32.80;1.00;;;;;;5109858;27;34169;-79
2022/08/08 11:31:02;;;;;;;0.93;0.60;;;33.00;1.00;;;;;;5104666;27;34324;-77
2022/08/08 11:33:29;;;;;;;0.50;0.50;;;33.00;1.00;;;;;;5127089;27;34212;-80
2022/08/08 11:35:56;;;;;;;1.95;0.50;;;33.10;1.00;;;;;;5109097;27;34260;-79
2022/08/08 11:38:24;;;;;;;0.80;0.60;;;33.20;1.00;;;;;;5126580;27;34165;-80
2022/08/08 11:40:52;;;;;;;1.15;0.60;;;33.40;1.00;;;;;;5091994;27;34240;-77
2022/08/08 11:43:18;;;;;;;0.85;0.60;;;33.60;1.00;;;;;;5090309;27;35592;-78
2022/08/08 11:45:45;;;;;;;2.40;0.50;;;33.70;1.00;;;;;;5090494;27;34165;-78
2022/08/08 11:48:13;;;;;;;2.75;0.70;;;33.70;1.00;;;;;;5088153;28;34160;-77
2022/08/08 11:50:40;;;;;;;0.73;0.45;;;33.80;1.00;;;;;;5108526;27;34504;-77
2022/08/08 11:53:08;;;;;;;1.17;0.63;;;33.60;1.00;;;;;;5127015;27;34319;-80
2022/08/08 11:55:45;;;;;;;5.05;0.52;;;33.80;1.00;;;;;;5109455;27;34156;-78
2022/08/08 11:58:15;;;;;;;0.50;0.50;;;33.80;1.00;;;;;;5106399;27;34788;-81
2022/08/08 12:00:46;;;;;;;1.55;0.55;;;33.90;1.00;;;;;;5103994;27;34803;-81
2022/08/08 12:03:19;;;;;;;0.30;0.30;;;34.00;1.00;;;;;;5107615;27;36382;-80
2022/08/08 12:05:46;;;;;;;0.85;0.50;;;34.10;1.00;;;;;;5095278;28;34219;-80
2022/08/08 12:08:13;;;;;;;1.00;0.57;;;34.20;1.00;;;;;;5117707;27;34032;-79
2022/08/08 12:10:58;;;;;;;0.90;0.60;;;34.20;1.00;;;;;;5094466;27;34516;-80
2022/08/08 12:13:25;;;;;;;1.48;0.40;;;34.20;1.00;;;;;;5096746;27;35756;-77
2022/08/08 12:15:52;;;;;;;2.42;0.50;;;34.10;1.00;;;;;;5108152;27;34298;-80
2022/08/08 12:18:23;;;;;;;8.25;0.50;;;34.10;1.00;;;;;;5089278;27;34199;-77
2022/08/08 12:20:51;;;;;;;0.50;0.50;;;34.10;1.00;;;;;;5108325;27;34201;-79
2022/08/08 12:23:34;;;;;;;0.85;0.50;;;34.30;1.00;;;;;;5108112;27;36160;-79
2022/08/08 12:26:09;;;;;;;1.48;0.40;;;34.50;1.00;;;;;;5108828;27;34431;-79
2022/08/08 12:28:35;;;;;;;0.52;0.52;;;34.60;1.00;;;;;;5092002;27;34149;-78
2022/08/08 12:31:09;;;;;;;0.98;0.50;;;34.60;1.00;;;;;;5109412;27;34633;-78
2022/08/08 12:33:39;;;;;;;0.85;0.50;;;34.50;1.00;;;;;;5105660;27;35694;-78
2022/08/08 12:36:13;;;;;;;0.85;0.50;;;34.50;1.00;;;;;;5129645;27;34123;-77
2022/08/08 12:38:49;;;;;;;0.50;0.50;;;34.40;1.00;;;;;;5095296;27;34201;-78
2022/08/08 12:41:15;;;;;;;0.57;0.57;;;34.10;1.00;;;;;;5109206;27;34500;-78
2022/08/08 12:43:41;;;;;;;0.43;0.40;;;34.10;1.00;;;;;;5107895;27;35852;-79
2022/08/08 12:46:17;;;;;;;0.50;0.45;;;34.20;1.00;;;;;;5140705;27;34259;-78
2022/08/08 12:49:00;;;;;;;0.43;0.43;;;34.10;1.00;;;;;;5126997;27;34300;-77
2022/08/08 12:51:37;;;;;;;1.77;0.52;;;34.20;1.00;;;;;;5148153;27;34016;-78
2022/08/08 12:54:03;;;;;;;1.85;0.50;;;34.30;1.00;;;;;;5118968;27;35772;-79
2022/08/08 12:56:33;;;;;;;0.32;0.32;;;34.30;1.00;;;;;;5126935;27;34408;-79
2022/08/08 12:59:00;;;;;;;0.40;0.40;;;34.50;1.00;;;;;;5092401;27;34298;-76
2022/08/08 13:01:48;;;;;;;0.63;0.47;;;34.50;1.00;;;;;;5126192;27;34916;-78
2022/08/08 13:04:19;;;;;;;1.23;0.50;;;34.50;1.00;;;;;;5128120;27;36801;-77
2022/08/08 13:07:03;;;;;;;1.77;0.70;;;34.40;1.00;;;;;;5109014;27;34270;-79
2022/08/08 13:09:34;;;;;;;1.08;0.65;;;34.30;1.00;;;;;;5110195;27;34423;-77
2022/08/08 13:12:09;;;;;;;0.60;0.50;;;34.30;1.00;;;;;;5093903;27;34100;-77
2022/08/08 13:14:41;;;;;;;1.02;0.40;;;34.20;1.00;;;;;;5133503;27;34358;-80
2022/08/08 13:17:08;;;;;;;0.60;0.57;;;34.10;1.00;;;;;;5108405;27;34202;-78
2022/08/08 13:19:35;;;;;;;1.63;0.70;;;34.10;1.00;;;;;;5107289;27;34236;-78
2022/08/08 13:22:01;;;;;;;1.17;0.60;;;34.00;1.00;;;;;;5105070;27;34046;-76
2022/08/08 13:24:29;;;;;;;2.72;0.60;;;33.90;1.00;;;;;;5115444;27;35558;-77
2022/08/08 13:27:14;;;;;;;1.25;0.75;;;33.70;1.00;;;;;;5128374;27;34098;-78
2022/08/08 13:29:57;;;;;;;0.98;0.60;;;33.70;1.00;;;;;;5128681;27;34277;-80
2022/08/08 13:32:24;;;;;;;6.55;0.70;;;33.70;1.00;;;;;;5107661;27;35686;-77
2022/08/08 13:34:55;;;;;;;0.98;0.50;;;33.70;1.00;;;;;;5108038;27;35664;-77
2022/08/08 13:37:22;;;;;;;1.30;0.47;;;33.70;1.00;;;;;;5108160;27;34311;-78